Airfield :







YOU CAN JOIN US ON...

 
LOGIN :

Register | Disclaimer

   EN    FR    IT 

 









Legend :    VFR   Marginal VFR   IFR   Intensive IFR   Very Intensive IFR
Visi :
Ceiling :
>= 8 km
>= 3000ft
5 to 8 km
1000 to 3000 ft
1500m to 5 km
500 to 1000 ft
800 to 1500m
200 to 500 ft
< 800m
< 200 ft
Symbols :   Thunderstorms  Fog  Heavy snow  Heavy precipitations  Wind > 20 kt






- Airport Elevation : 342 ft


KCON - Concord Municipal

CURRENT METAR :
  • 270951Z AUTO 1/4SM FG VV002 09/09 A2977 RMK AO2 SLP082 T00940094

EXPIRED METARs :
  • 270851Z AUTO 00000KT 1/4SM FG VV002 09/09 A2976 RMK AO2 SLP079 T00890089 56005
  • 270834Z AUTO 1/4SM FG VV002 09/09 A2976 RMK AO2 T00890089
  • 270822Z AUTO 00000KT 1/2SM FG VV002 09/09 A2976 RMK AO2 T00890089
  • 270751Z AUTO 00000KT 1/4SM FG VV002 09/09 A2977 RMK AO2 SLP080 T00940094
  • 270730Z AUTO 03007KT 1/4SM FG VV002 10/10 A2977 RMK AO2 T01000100
  • 270717Z AUTO 00000KT M1/4SM FG VV002 10/10 A2976 RMK AO2 T01000100

TAF KCON
Valid from the 27 at 09:00 until the 28 at 06:00 UTC


270909Z 2709/2806 00000KT 1/4SM FG VV002
FM271200 19004KT 2SM BR FEW001 OVC120
FM271400 21007KT P6SM BKN120
FM271700 25008G17KT P6SM BKN120
FM272200 00000KT P6SM SCT100
KZBW FIR / North America



MET'MAP, your aeronautical weather chart ! - Copyright ORBIFLY December 2007 - Disclaimer

ORBIFLY MET'MAP TEAM :

Programming & Development : Alexandra Zaïnal
Original concept : Baudouin d'Aumeries
Technical & hardware support : Manuel Goepfert
Assistance : Marc-Olivier Méhu




SOURCES & CREDITS :

   NOAA